sensor_id;sensor_type;location;lat;lon;timestamp;P1;durP1;ratioP1;P2;durP2;ratioP2
10311;SDS011;5201;48.776;9.128;2023-05-07T00:01:53;3.13;;;1.43;;
10311;SDS011;5201;48.776;9.128;2023-05-07T00:04:19;1.50;;;1.40;;
10311;SDS011;5201;48.776;9.128;2023-05-07T00:06:45;3.93;;;1.43;;
10311;SDS011;5201;48.776;9.128;2023-05-07T00:09:11;1.50;;;1.23;;
10311;SDS011;5201;48.776;9.128;2023-05-07T00:11:36;1.30;;;1.10;;
10311;SDS011;5201;48.776;9.128;2023-05-07T00:14:02;1.57;;;1.07;;
10311;SDS011;5201;48.776;9.128;2023-05-07T00:16:27;4.03;;;1.50;;
10311;SDS011;5201;48.776;9.128;2023-05-07T00:18:53;2.73;;;1.80;;
10311;SDS011;5201;48.776;9.128;2023-05-07T00:21:19;2.90;;;1.70;;
10311;SDS011;5201;48.776;9.128;2023-05-07T00:23:44;5.33;;;1.77;;
10311;SDS011;5201;48.776;9.128;2023-05-07T00:26:10;3.73;;;2.00;;
10311;SDS011;5201;48.776;9.128;2023-05-07T00:28:35;2.43;;;1.70;;
10311;SDS011;5201;48.776;9.128;2023-05-07T00:31:01;5.40;;;1.60;;
10311;SDS011;5201;48.776;9.128;2023-05-07T00:33:27;4.60;;;2.13;;
10311;SDS011;5201;48.776;9.128;2023-05-07T00:35:52;3.53;;;2.13;;
10311;SDS011;5201;48.776;9.128;2023-05-07T00:38:19;1.90;;;1.77;;
10311;SDS011;5201;48.776;9.128;2023-05-07T00:40:45;2.63;;;1.80;;
10311;SDS011;5201;48.776;9.128;2023-05-07T00:43:10;2.00;;;1.60;;
10311;SDS011;5201;48.776;9.128;2023-05-07T00:45:37;4.23;;;1.90;;
10311;SDS011;5201;48.776;9.128;2023-05-07T00:48:03;1.67;;;1.53;;
10311;SDS011;5201;48.776;9.128;2023-05-07T00:50:29;1.83;;;1.43;;
10311;SDS011;5201;48.776;9.128;2023-05-07T00:52:55;1.50;;;1.40;;
10311;SDS011;5201;48.776;9.128;2023-05-07T00:55:21;1.80;;;1.47;;
10311;SDS011;5201;48.776;9.128;2023-05-07T00:57:48;2.87;;;1.60;;
10311;SDS011;5201;48.776;9.128;2023-05-07T01:00:15;1.73;;;1.33;;
10311;SDS011;5201;48.776;9.128;2023-05-07T01:02:41;3.30;;;1.73;;
10311;SDS011;5201;48.776;9.128;2023-05-07T01:05:08;2.77;;;1.93;;
10311;SDS011;5201;48.776;9.128;2023-05-07T01:07:36;1.97;;;1.80;;
10311;SDS011;5201;48.776;9.128;2023-05-07T01:10:04;2.07;;;1.50;;
10311;SDS011;5201;48.776;9.128;2023-05-07T01:12:31;1.20;;;1.20;;
10311;SDS011;5201;48.776;9.128;2023-05-07T01:14:57;2.37;;;1.77;;
10311;SDS011;5201;48.776;9.128;2023-05-07T01:17:23;3.17;;;1.70;;
10311;SDS011;5201;48.776;9.128;2023-05-07T01:19:49;2.43;;;1.73;;
10311;SDS011;5201;48.776;9.128;2023-05-07T01:22:18;3.10;;;1.70;;
10311;SDS011;5201;48.776;9.128;2023-05-07T01:25:05;5.93;;;2.20;;
10311;SDS011;5201;48.776;9.128;2023-05-07T01:27:32;3.20;;;2.13;;
10311;SDS011;5201;48.776;9.128;2023-05-07T01:30:02;2.63;;;1.87;;
10311;SDS011;5201;48.776;9.128;2023-05-07T01:32:30;5.07;;;2.47;;
10311;SDS011;5201;48.776;9.128;2023-05-07T01:35:03;6.27;;;2.10;;
10311;SDS011;5201;48.776;9.128;2023-05-07T01:37:32;2.00;;;1.77;;
10311;SDS011;5201;48.776;9.128;2023-05-07T01:39:58;2.70;;;2.03;;
10311;SDS011;5201;48.776;9.128;2023-05-07T01:42:24;2.33;;;2.00;;
10311;SDS011;5201;48.776;9.128;2023-05-07T01:44:50;2.43;;;1.80;;
10311;SDS011;5201;48.776;9.128;2023-05-07T01:47:16;2.73;;;2.40;;
10311;SDS011;5201;48.776;9.128;2023-05-07T01:49:42;3.97;;;2.33;;
10311;SDS011;5201;48.776;9.128;2023-05-07T01:52:09;2.90;;;2.10;;
10311;SDS011;5201;48.776;9.128;2023-05-07T01:54:36;2.60;;;2.00;;
10311;SDS011;5201;48.776;9.128;2023-05-07T01:57:01;4.43;;;2.60;;
10311;SDS011;5201;48.776;9.128;2023-05-07T01:59:27;2.40;;;2.10;;
10311;SDS011;5201;48.776;9.128;2023-05-07T02:01:53;2.70;;;1.77;;
10311;SDS011;5201;48.776;9.128;2023-05-07T02:04:18;2.80;;;2.17;;
10311;SDS011;5201;48.776;9.128;2023-05-07T02:06:44;2.83;;;2.20;;
10311;SDS011;5201;48.776;9.128;2023-05-07T02:09:09;3.77;;;2.10;;
10311;SDS011;5201;48.776;9.128;2023-05-07T02:11:35;3.87;;;2.60;;
10311;SDS011;5201;48.776;9.128;2023-05-07T02:14:01;2.97;;;2.20;;
10311;SDS011;5201;48.776;9.128;2023-05-07T02:16:26;3.60;;;2.50;;
10311;SDS011;5201;48.776;9.128;2023-05-07T02:18:52;3.97;;;2.53;;
10311;SDS011;5201;48.776;9.128;2023-05-07T02:21:18;2.33;;;2.13;;
10311;SDS011;5201;48.776;9.128;2023-05-07T02:23:43;2.57;;;2.03;;
10311;SDS011;5201;48.776;9.128;2023-05-07T02:26:10;4.10;;;2.30;;
10311;SDS011;5201;48.776;9.128;2023-05-07T02:28:36;2.20;;;1.80;;
10311;SDS011;5201;48.776;9.128;2023-05-07T02:31:04;3.23;;;2.40;;
10311;SDS011;5201;48.776;9.128;2023-05-07T02:33:30;7.77;;;2.60;;
10311;SDS011;5201;48.776;9.128;2023-05-07T02:35:56;3.97;;;1.87;;
10311;SDS011;5201;48.776;9.128;2023-05-07T02:38:22;3.07;;;1.70;;
10311;SDS011;5201;48.776;9.128;2023-05-07T02:40:47;4.17;;;2.17;;
10311;SDS011;5201;48.776;9.128;2023-05-07T02:43:13;3.43;;;2.03;;
10311;SDS011;5201;48.776;9.128;2023-05-07T02:45:38;2.33;;;1.90;;
10311;SDS011;5201;48.776;9.128;2023-05-07T02:48:04;3.87;;;1.60;;
10311;SDS011;5201;48.776;9.128;2023-05-07T02:50:33;2.33;;;2.07;;
10311;SDS011;5201;48.776;9.128;2023-05-07T02:52:58;4.90;;;2.17;;
10311;SDS011;5201;48.776;9.128;2023-05-07T02:55:24;3.17;;;1.83;;
10311;SDS011;5201;48.776;9.128;2023-05-07T02:57:50;6.33;;;2.07;;
10311;SDS011;5201;48.776;9.128;2023-05-07T03:00:16;2.27;;;1.60;;
10311;SDS011;5201;48.776;9.128;2023-05-07T03:02:44;2.20;;;1.50;;
10311;SDS011;5201;48.776;9.128;2023-05-07T03:05:09;1.70;;;1.60;;
10311;SDS011;5201;48.776;9.128;2023-05-07T03:07:36;2.17;;;1.63;;
10311;SDS011;5201;48.776;9.128;2023-05-07T03:10:03;1.93;;;1.70;;
10311;SDS011;5201;48.776;9.128;2023-05-07T03:12:29;1.93;;;1.73;;
10311;SDS011;5201;48.776;9.128;2023-05-07T03:14:55;2.17;;;1.53;;
10311;SDS011;5201;48.776;9.128;2023-05-07T03:17:21;4.50;;;1.67;;
10311;SDS011;5201;48.776;9.128;2023-05-07T03:19:47;2.13;;;1.27;;
10311;SDS011;5201;48.776;9.128;2023-05-07T03:22:12;4.70;;;1.80;;
10311;SDS011;5201;48.776;9.128;2023-05-07T03:24:38;5.87;;;1.47;;
10311;SDS011;5201;48.776;9.128;2023-05-07T03:27:03;2.93;;;1.70;;
10311;SDS011;5201;48.776;9.128;2023-05-07T03:29:29;2.07;;;1.73;;
10311;SDS011;5201;48.776;9.128;2023-05-07T03:31:54;2.67;;;1.50;;
10311;SDS011;5201;48.776;9.128;2023-05-07T03:34:20;1.67;;;1.57;;
10311;SDS011;5201;48.776;9.128;2023-05-07T03:36:50;1.57;;;1.40;;
10311;SDS011;5201;48.776;9.128;2023-05-07T03:39:16;1.70;;;1.50;;
10311;SDS011;5201;48.776;9.128;2023-05-07T03:41:41;1.40;;;1.30;;
10311;SDS011;5201;48.776;9.128;2023-05-07T03:44:07;3.17;;;1.20;;
10311;SDS011;5201;48.776;9.128;2023-05-07T03:46:33;1.60;;;1.20;;
10311;SDS011;5201;48.776;9.128;2023-05-07T03:48:59;1.53;;;1.40;;
10311;SDS011;5201;48.776;9.128;2023-05-07T03:51:25;3.80;;;1.60;;
10311;SDS011;5201;48.776;9.128;2023-05-07T03:53:51;1.77;;;1.53;;
10311;SDS011;5201;48.776;9.128;2023-05-07T03:56:18;1.53;;;1.43;;
10311;SDS011;5201;48.776;9.128;2023-05-07T03:58:44;1.73;;;1.50;;
10311;SDS011;5201;48.776;9.128;2023-05-07T04:01:10;1.40;;;1.13;;
10311;SDS011;5201;48.776;9.128;2023-05-07T04:03:36;5.03;;;1.30;;
10311;SDS011;5201;48.776;9.128;2023-05-07T04:06:02;3.50;;;1.33;;
10311;SDS011;5201;48.776;9.128;2023-05-07T04:08:27;1.50;;;1.20;;
10311;SDS011;5201;48.776;9.128;2023-05-07T04:10:56;2.10;;;1.50;;
10311;SDS011;5201;48.776;9.128;2023-05-07T04:13:22;3.37;;;1.50;;
10311;SDS011;5201;48.776;9.128;2023-05-07T04:15:48;1.57;;;1.43;;
10311;SDS011;5201;48.776;9.128;2023-05-07T04:18:14;1.07;;;1.07;;
10311;SDS011;5201;48.776;9.128;2023-05-07T04:20:40;1.47;;;1.23;;
10311;SDS011;5201;48.776;9.128;2023-05-07T04:23:06;1.67;;;1.30;;
10311;SDS011;5201;48.776;9.128;2023-05-07T04:25:32;3.03;;;1.00;;
10311;SDS011;5201;48.776;9.128;2023-05-07T04:27:58;1.90;;;1.00;;
10311;SDS011;5201;48.776;9.128;2023-05-07T04:30:23;2.30;;;1.27;;
10311;SDS011;5201;48.776;9.128;2023-05-07T04:32:49;1.17;;;1.07;;
10311;SDS011;5201;48.776;9.128;2023-05-07T04:35:15;1.30;;;1.20;;
10311;SDS011;5201;48.776;9.128;2023-05-07T04:37:40;1.87;;;1.50;;
10311;SDS011;5201;48.776;9.128;2023-05-07T04:40:06;1.57;;;1.47;;
10311;SDS011;5201;48.776;9.128;2023-05-07T04:42:32;1.40;;;1.30;;
10311;SDS011;5201;48.776;9.128;2023-05-07T04:44:58;1.50;;;1.40;;
10311;SDS011;5201;48.776;9.128;2023-05-07T04:47:23;2.63;;;1.80;;
10311;SDS011;5201;48.776;9.128;2023-05-07T04:49:49;1.40;;;1.30;;
10311;SDS011;5201;48.776;9.128;2023-05-07T04:52:14;4.50;;;1.30;;
10311;SDS011;5201;48.776;9.128;2023-05-07T04:54:40;1.30;;;1.20;;
10311;SDS011;5201;48.776;9.128;2023-05-07T04:57:06;1.90;;;1.20;;
10311;SDS011;5201;48.776;9.128;2023-05-07T04:59:32;1.70;;;1.37;;
10311;SDS011;5201;48.776;9.128;2023-05-07T05:01:58;1.43;;;1.20;;
10311;SDS011;5201;48.776;9.128;2023-05-07T05:04:23;2.87;;;1.70;;
10311;SDS011;5201;48.776;9.128;2023-05-07T05:06:49;1.43;;;1.20;;
10311;SDS011;5201;48.776;9.128;2023-05-07T05:09:15;1.97;;;1.50;;
10311;SDS011;5201;48.776;9.128;2023-05-07T05:11:41;1.63;;;1.50;;
10311;SDS011;5201;48.776;9.128;2023-05-07T05:14:06;1.30;;;1.20;;
10311;SDS011;5201;48.776;9.128;2023-05-07T05:16:32;2.00;;;1.27;;
10311;SDS011;5201;48.776;9.128;2023-05-07T05:18:58;1.23;;;1.13;;
10311;SDS011;5201;48.776;9.128;2023-05-07T05:21:24;1.33;;;1.23;;
10311;SDS011;5201;48.776;9.128;2023-05-07T05:23:49;1.40;;;1.30;;
10311;SDS011;5201;48.776;9.128;2023-05-07T05:26:15;2.33;;;1.77;;
10311;SDS011;5201;48.776;9.128;2023-05-07T05:28:41;1.97;;;1.30;;
10311;SDS011;5201;48.776;9.128;2023-05-07T05:31:06;1.93;;;1.40;;
10311;SDS011;5201;48.776;9.128;2023-05-07T05:33:32;1.30;;;1.20;;
10311;SDS011;5201;48.776;9.128;2023-05-07T05:35:57;5.90;;;1.60;;
10311;SDS011;5201;48.776;9.128;2023-05-07T05:38:23;1.80;;;1.60;;
10311;SDS011;5201;48.776;9.128;2023-05-07T05:40:48;1.67;;;1.53;;
10311;SDS011;5201;48.776;9.128;2023-05-07T05:43:14;1.47;;;1.37;;
10311;SDS011;5201;48.776;9.128;2023-05-07T05:45:40;1.70;;;1.30;;
10311;SDS011;5201;48.776;9.128;2023-05-07T05:48:05;1.30;;;1.20;;
10311;SDS011;5201;48.776;9.128;2023-05-07T05:50:31;5.07;;;1.37;;
10311;SDS011;5201;48.776;9.128;2023-05-07T05:52:57;1.60;;;1.40;;
10311;SDS011;5201;48.776;9.128;2023-05-07T05:55:23;1.73;;;1.53;;
10311;SDS011;5201;48.776;9.128;2023-05-07T05:57:49;1.87;;;1.07;;
10311;SDS011;5201;48.776;9.128;2023-05-07T06:00:15;1.40;;;1.30;;
10311;SDS011;5201;48.776;9.128;2023-05-07T06:02:41;2.57;;;1.50;;
10311;SDS011;5201;48.776;9.128;2023-05-07T06:05:07;2.40;;;1.90;;
10311;SDS011;5201;48.776;9.128;2023-05-07T06:07:33;1.70;;;1.60;;
10311;SDS011;5201;48.776;9.128;2023-05-07T06:09:59;5.63;;;1.67;;
10311;SDS011;5201;48.776;9.128;2023-05-07T06:12:26;3.63;;;1.67;;
10311;SDS011;5201;48.776;9.128;2023-05-07T06:14:51;2.50;;;1.80;;
10311;SDS011;5201;48.776;9.128;2023-05-07T06:17:17;1.63;;;1.47;;
10311;SDS011;5201;48.776;9.128;2023-05-07T06:19:43;3.67;;;1.93;;
10311;SDS011;5201;48.776;9.128;2023-05-07T06:22:08;1.60;;;1.50;;
10311;SDS011;5201;48.776;9.128;2023-05-07T06:24:34;1.87;;;1.60;;
10311;SDS011;5201;48.776;9.128;2023-05-07T06:27:00;4.93;;;1.93;;
10311;SDS011;5201;48.776;9.128;2023-05-07T06:29:25;4.30;;;2.13;;
10311;SDS011;5201;48.776;9.128;2023-05-07T06:31:52;6.47;;;1.90;;
10311;SDS011;5201;48.776;9.128;2023-05-07T06:34:18;1.57;;;1.47;;
10311;SDS011;5201;48.776;9.128;2023-05-07T06:36:43;3.00;;;1.50;;
10311;SDS011;5201;48.776;9.128;2023-05-07T06:39:09;2.33;;;1.30;;
10311;SDS011;5201;48.776;9.128;2023-05-07T06:41:35;2.47;;;1.40;;
10311;SDS011;5201;48.776;9.128;2023-05-07T06:44:03;2.17;;;1.40;;
10311;SDS011;5201;48.776;9.128;2023-05-07T06:46:29;3.23;;;1.60;;
10311;SDS011;5201;48.776;9.128;2023-05-07T06:48:55;2.55;;;1.65;;
10311;SDS011;5201;48.776;9.128;2023-05-07T06:51:21;3.22;;;1.60;;
10311;SDS011;5201;48.776;9.128;2023-05-07T06:53:47;1.50;;;1.40;;
10311;SDS011;5201;48.776;9.128;2023-05-07T06:56:13;2.50;;;1.77;;
10311;SDS011;5201;48.776;9.128;2023-05-07T06:58:38;5.18;;;1.88;;
10311;SDS011;5201;48.776;9.128;2023-05-07T07:01:04;3.38;;;1.77;;
10311;SDS011;5201;48.776;9.128;2023-05-07T07:03:30;2.40;;;1.80;;
10311;SDS011;5201;48.776;9.128;2023-05-07T07:05:55;2.95;;;1.60;;
10311;SDS011;5201;48.776;9.128;2023-05-07T07:08:21;3.42;;;1.40;;
10311;SDS011;5201;48.776;9.128;2023-05-07T07:10:47;2.38;;;1.60;;
10311;SDS011;5201;48.776;9.128;2023-05-07T07:13:13;3.30;;;1.48;;
10311;SDS011;5201;48.776;9.128;2023-05-07T07:15:39;4.28;;;2.00;;
10311;SDS011;5201;48.776;9.128;2023-05-07T07:18:05;1.60;;;1.50;;
10311;SDS011;5201;48.776;9.128;2023-05-07T07:20:31;2.60;;;1.60;;
10311;SDS011;5201;48.776;9.128;2023-05-07T07:22:56;1.75;;;1.45;;
10311;SDS011;5201;48.776;9.128;2023-05-07T07:25:22;1.92;;;1.40;;
10311;SDS011;5201;48.776;9.128;2023-05-07T07:27:48;1.33;;;1.20;;
10311;SDS011;5201;48.776;9.128;2023-05-07T07:30:14;2.00;;;1.08;;
10311;SDS011;5201;48.776;9.128;2023-05-07T07:32:40;1.83;;;1.52;;
10311;SDS011;5201;48.776;9.128;2023-05-07T07:35:06;1.42;;;1.30;;
10311;SDS011;5201;48.776;9.128;2023-05-07T07:37:32;3.28;;;1.42;;
10311;SDS011;5201;48.776;9.128;2023-05-07T07:39:57;1.70;;;1.40;;
10311;SDS011;5201;48.776;9.128;2023-05-07T07:42:23;3.13;;;1.58;;
10311;SDS011;5201;48.776;9.128;2023-05-07T07:44:49;2.33;;;1.10;;
10311;SDS011;5201;48.776;9.128;2023-05-07T07:47:15;1.40;;;1.27;;
10311;SDS011;5201;48.776;9.128;2023-05-07T07:49:40;3.05;;;1.52;;
10311;SDS011;5201;48.776;9.128;2023-05-07T07:52:06;3.00;;;1.40;;
10311;SDS011;5201;48.776;9.128;2023-05-07T07:54:31;1.90;;;1.20;;
10311;SDS011;5201;48.776;9.128;2023-05-07T07:56:57;1.10;;;0.93;;
10311;SDS011;5201;48.776;9.128;2023-05-07T07:59:23;1.70;;;1.58;;
10311;SDS011;5201;48.776;9.128;2023-05-07T08:01:48;2.40;;;1.20;;
10311;SDS011;5201;48.776;9.128;2023-05-07T08:04:15;1.60;;;1.30;;
10311;SDS011;5201;48.776;9.128;2023-05-07T08:06:41;2.90;;;1.17;;
10311;SDS011;5201;48.776;9.128;2023-05-07T08:09:07;3.15;;;1.17;;
10311;SDS011;5201;48.776;9.128;2023-05-07T08:11:33;1.52;;;0.90;;
10311;SDS011;5201;48.776;9.128;2023-05-07T08:13:58;1.50;;;1.40;;
10311;SDS011;5201;48.776;9.128;2023-05-07T08:16:24;2.28;;;1.15;;
10311;SDS011;5201;48.776;9.128;2023-05-07T08:18:50;4.15;;;1.50;;
10311;SDS011;5201;48.776;9.128;2023-05-07T08:21:15;2.58;;;1.00;;
10311;SDS011;5201;48.776;9.128;2023-05-07T08:23:41;3.25;;;1.00;;
10311;SDS011;5201;48.776;9.128;2023-05-07T08:26:07;6.85;;;1.10;;
10311;SDS011;5201;48.776;9.128;2023-05-07T08:28:33;2.60;;;1.30;;
10311;SDS011;5201;48.776;9.128;2023-05-07T08:30:59;3.63;;;1.23;;
10311;SDS011;5201;48.776;9.128;2023-05-07T08:33:25;1.98;;;1.10;;
10311;SDS011;5201;48.776;9.128;2023-05-07T08:35:51;2.05;;;0.90;;
10311;SDS011;5201;48.776;9.128;2023-05-07T08:38:17;1.48;;;1.08;;
10311;SDS011;5201;48.776;9.128;2023-05-07T08:40:42;2.50;;;1.20;;
10311;SDS011;5201;48.776;9.128;2023-05-07T08:43:10;1.40;;;1.00;;
10311;SDS011;5201;48.776;9.128;2023-05-07T08:45:39;4.97;;;1.25;;
10311;SDS011;5201;48.776;9.128;2023-05-07T08:48:14;1.10;;;0.80;;
10311;SDS011;5201;48.776;9.128;2023-05-07T08:50:40;1.08;;;0.93;;
10311;SDS011;5201;48.776;9.128;2023-05-07T08:53:06;3.13;;;0.90;;
10311;SDS011;5201;48.776;9.128;2023-05-07T08:55:32;1.55;;;0.88;;
10311;SDS011;5201;48.776;9.128;2023-05-07T08:57:58;3.85;;;1.00;;
10311;SDS011;5201;48.776;9.128;2023-05-07T09:00:24;1.10;;;0.93;;
10311;SDS011;5201;48.776;9.128;2023-05-07T09:02:50;3.85;;;0.90;;
10311;SDS011;5201;48.776;9.128;2023-05-07T09:05:18;4.28;;;1.00;;
10311;SDS011;5201;48.776;9.128;2023-05-07T09:07:43;1.67;;;0.80;;
10311;SDS011;5201;48.776;9.128;2023-05-07T09:10:10;2.45;;;0.93;;
10311;SDS011;5201;48.776;9.128;2023-05-07T09:12:37;2.03;;;1.25;;
10311;SDS011;5201;48.776;9.128;2023-05-07T09:15:04;1.00;;;0.95;;
10311;SDS011;5201;48.776;9.128;2023-05-07T09:17:30;1.08;;;0.90;;
10311;SDS011;5201;48.776;9.128;2023-05-07T09:19:56;1.45;;;0.93;;
10311;SDS011;5201;48.776;9.128;2023-05-07T09:22:26;1.20;;;1.10;;
10311;SDS011;5201;48.776;9.128;2023-05-07T09:24:52;3.95;;;0.90;;
10311;SDS011;5201;48.776;9.128;2023-05-07T09:27:17;1.42;;;0.85;;
10311;SDS011;5201;48.776;9.128;2023-05-07T09:29:44;6.43;;;1.02;;
10311;SDS011;5201;48.776;9.128;2023-05-07T09:32:10;3.40;;;0.90;;
10311;SDS011;5201;48.776;9.128;2023-05-07T09:34:35;5.65;;;1.00;;
10311;SDS011;5201;48.776;9.128;2023-05-07T09:37:02;0.70;;;0.70;;
10311;SDS011;5201;48.776;9.128;2023-05-07T09:42:10;3.88;;;1.55;;
10311;SDS011;5201;48.776;9.128;2023-05-07T09:44:36;1.13;;;1.00;;
10311;SDS011;5201;48.776;9.128;2023-05-07T09:47:06;4.82;;;0.90;;
10311;SDS011;5201;48.776;9.128;2023-05-07T09:49:35;2.53;;;0.88;;
10311;SDS011;5201;48.776;9.128;2023-05-07T09:52:04;2.25;;;0.80;;
10311;SDS011;5201;48.776;9.128;2023-05-07T09:54:32;1.83;;;0.85;;
10311;SDS011;5201;48.776;9.128;2023-05-07T09:56:58;1.02;;;0.80;;
10311;SDS011;5201;48.776;9.128;2023-05-07T09:59:27;1.15;;;1.02;;
10311;SDS011;5201;48.776;9.128;2023-05-07T10:01:55;1.33;;;0.82;;
10311;SDS011;5201;48.776;9.128;2023-05-07T10:04:23;1.00;;;0.75;;
10311;SDS011;5201;48.776;9.128;2023-05-07T10:06:49;4.03;;;0.80;;
10311;SDS011;5201;48.776;9.128;2023-05-07T10:09:15;4.20;;;0.75;;
10311;SDS011;5201;48.776;9.128;2023-05-07T10:11:41;2.90;;;1.05;;
10311;SDS011;5201;48.776;9.128;2023-05-07T10:14:08;0.80;;;0.75;;
10311;SDS011;5201;48.776;9.128;2023-05-07T10:16:35;0.90;;;0.80;;
10311;SDS011;5201;48.776;9.128;2023-05-07T10:19:02;0.85;;;0.85;;
10311;SDS011;5201;48.776;9.128;2023-05-07T10:21:29;2.80;;;0.82;;
10311;SDS011;5201;48.776;9.128;2023-05-07T10:24:03;0.93;;;0.60;;
10311;SDS011;5201;48.776;9.128;2023-05-07T10:26:35;1.77;;;0.90;;
10311;SDS011;5201;48.776;9.128;2023-05-07T10:29:04;1.10;;;0.90;;
10311;SDS011;5201;48.776;9.128;2023-05-07T10:34:12;4.47;;;1.10;;
10311;SDS011;5201;48.776;9.128;2023-05-07T10:36:42;1.40;;;0.85;;
10311;SDS011;5201;48.776;9.128;2023-05-07T10:39:09;1.20;;;1.10;;
10311;SDS011;5201;48.776;9.128;2023-05-07T10:41:35;2.03;;;0.80;;
10311;SDS011;5201;48.776;9.128;2023-05-07T10:44:01;2.20;;;0.73;;
10311;SDS011;5201;48.776;9.128;2023-05-07T10:46:27;1.70;;;1.00;;
10311;SDS011;5201;48.776;9.128;2023-05-07T10:51:29;1.30;;;0.68;;
10311;SDS011;5201;48.776;9.128;2023-05-07T10:56:37;0.77;;;0.70;;
10311;SDS011;5201;48.776;9.128;2023-05-07T11:01:53;4.43;;;0.80;;
10311;SDS011;5201;48.776;9.128;2023-05-07T11:04:31;2.38;;;0.77;;
10311;SDS011;5201;48.776;9.128;2023-05-07T11:15:05;2.88;;;0.77;;
10311;SDS011;5201;48.776;9.128;2023-05-07T11:17:31;0.75;;;0.75;;
10311;SDS011;5201;48.776;9.128;2023-05-07T11:19:59;2.15;;;1.15;;
10311;SDS011;5201;48.776;9.128;2023-05-07T11:25:02;1.60;;;1.00;;
10311;SDS011;5201;48.776;9.128;2023-05-07T11:27:28;2.00;;;1.05;;
10311;SDS011;5201;48.776;9.128;2023-05-07T11:29:55;2.50;;;0.80;;
10311;SDS011;5201;48.776;9.128;2023-05-07T11:32:28;1.48;;;0.80;;
10311;SDS011;5201;48.776;9.128;2023-05-07T11:34:55;1.20;;;0.82;;
10311;SDS011;5201;48.776;9.128;2023-05-07T11:37:22;1.98;;;0.90;;
10311;SDS011;5201;48.776;9.128;2023-05-07T11:39:49;1.52;;;0.82;;
10311;SDS011;5201;48.776;9.128;2023-05-07T11:42:31;0.60;;;0.60;;
10311;SDS011;5201;48.776;9.128;2023-05-07T11:45:02;11.82;;;1.52;;
10311;SDS011;5201;48.776;9.128;2023-05-07T11:47:31;6.03;;;1.30;;
10311;SDS011;5201;48.776;9.128;2023-05-07T11:50:02;9.38;;;2.33;;
10311;SDS011;5201;48.776;9.128;2023-05-07T11:52:32;6.70;;;1.75;;
10311;SDS011;5201;48.776;9.128;2023-05-07T11:54:59;5.70;;;1.80;;
10311;SDS011;5201;48.776;9.128;2023-05-07T11:57:26;1.60;;;1.30;;
10311;SDS011;5201;48.776;9.128;2023-05-07T11:59:52;1.48;;;1.38;;
10311;SDS011;5201;48.776;9.128;2023-05-07T12:02:19;5.35;;;1.70;;
10311;SDS011;5201;48.776;9.128;2023-05-07T12:04:44;5.95;;;1.63;;
10311;SDS011;5201;48.776;9.128;2023-05-07T12:07:16;8.23;;;1.77;;
10311;SDS011;5201;48.776;9.128;2023-05-07T12:09:43;6.93;;;1.45;;
10311;SDS011;5201;48.776;9.128;2023-05-07T12:12:09;5.32;;;1.63;;
10311;SDS011;5201;48.776;9.128;2023-05-07T12:14:39;10.05;;;1.95;;
10311;SDS011;5201;48.776;9.128;2023-05-07T12:17:06;4.70;;;1.90;;
10311;SDS011;5201;48.776;9.128;2023-05-07T12:19:34;4.95;;;1.25;;
10311;SDS011;5201;48.776;9.128;2023-05-07T12:22:01;4.53;;;1.70;;
10311;SDS011;5201;48.776;9.128;2023-05-07T12:24:27;3.65;;;1.17;;
10311;SDS011;5201;48.776;9.128;2023-05-07T12:26:53;8.88;;;1.70;;
10311;SDS011;5201;48.776;9.128;2023-05-07T12:29:22;8.43;;;1.15;;
10311;SDS011;5201;48.776;9.128;2023-05-07T12:31:48;2.40;;;1.02;;
10311;SDS011;5201;48.776;9.128;2023-05-07T12:34:15;2.58;;;1.02;;
10311;SDS011;5201;48.776;9.128;2023-05-07T12:36:40;4.78;;;1.10;;
10311;SDS011;5201;48.776;9.128;2023-05-07T12:39:06;3.85;;;1.35;;
10311;SDS011;5201;48.776;9.128;2023-05-07T12:41:53;6.57;;;1.40;;
10311;SDS011;5201;48.776;9.128;2023-05-07T12:44:23;6.13;;;1.30;;
10311;SDS011;5201;48.776;9.128;2023-05-07T12:46:50;3.37;;;1.53;;
10311;SDS011;5201;48.776;9.128;2023-05-07T12:49:16;4.10;;;1.20;;
10311;SDS011;5201;48.776;9.128;2023-05-07T12:51:46;4.93;;;1.00;;
10311;SDS011;5201;48.776;9.128;2023-05-07T12:54:13;4.13;;;1.00;;
10311;SDS011;5201;48.776;9.128;2023-05-07T12:56:59;5.10;;;1.10;;
10311;SDS011;5201;48.776;9.128;2023-05-07T12:59:39;1.93;;;0.80;;
10311;SDS011;5201;48.776;9.128;2023-05-07T13:02:06;4.97;;;1.53;;
10311;SDS011;5201;48.776;9.128;2023-05-07T13:04:32;1.30;;;1.20;;
10311;SDS011;5201;48.776;9.128;2023-05-07T13:06:58;3.23;;;1.33;;
10311;SDS011;5201;48.776;9.128;2023-05-07T13:09:25;3.23;;;0.87;;
10311;SDS011;5201;48.776;9.128;2023-05-07T13:11:50;1.33;;;1.00;;
10311;SDS011;5201;48.776;9.128;2023-05-07T13:14:16;4.83;;;1.00;;
10311;SDS011;5201;48.776;9.128;2023-05-07T13:16:42;2.80;;;1.03;;
10311;SDS011;5201;48.776;9.128;2023-05-07T13:19:07;4.33;;;1.00;;
10311;SDS011;5201;48.776;9.128;2023-05-07T13:21:33;4.73;;;0.80;;
10311;SDS011;5201;48.776;9.128;2023-05-07T13:23:58;3.30;;;0.77;;
10311;SDS011;5201;48.776;9.128;2023-05-07T13:26:24;1.83;;;0.90;;
10311;SDS011;5201;48.776;9.128;2023-05-07T13:28:50;6.83;;;0.80;;
10311;SDS011;5201;48.776;9.128;2023-05-07T13:31:17;1.47;;;0.73;;
10311;SDS011;5201;48.776;9.128;2023-05-07T13:33:42;4.97;;;0.77;;
10311;SDS011;5201;48.776;9.128;2023-05-07T13:36:08;5.60;;;0.90;;
10311;SDS011;5201;48.776;9.128;2023-05-07T13:38:34;1.50;;;0.70;;
10311;SDS011;5201;48.776;9.128;2023-05-07T13:41:00;0.50;;;0.50;;
10311;SDS011;5201;48.776;9.128;2023-05-07T13:43:25;2.00;;;1.07;;
10311;SDS011;5201;48.776;9.128;2023-05-07T13:45:51;5.70;;;1.30;;
10311;SDS011;5201;48.776;9.128;2023-05-07T13:48:16;1.30;;;0.80;;
10311;SDS011;5201;48.776;9.128;2023-05-07T13:50:42;0.83;;;0.70;;
10311;SDS011;5201;48.776;9.128;2023-05-07T13:53:08;0.53;;;0.53;;
10311;SDS011;5201;48.776;9.128;2023-05-07T13:55:33;1.97;;;0.60;;
10311;SDS011;5201;48.776;9.128;2023-05-07T13:57:59;1.70;;;0.70;;
10311;SDS011;5201;48.776;9.128;2023-05-07T14:00:26;4.50;;;0.70;;
10311;SDS011;5201;48.776;9.128;2023-05-07T14:02:53;3.00;;;0.87;;
10311;SDS011;5201;48.776;9.128;2023-05-07T14:05:20;1.13;;;0.77;;
10311;SDS011;5201;48.776;9.128;2023-05-07T14:07:48;0.50;;;0.50;;
10311;SDS011;5201;48.776;9.128;2023-05-07T14:10:16;1.80;;;0.80;;
10311;SDS011;5201;48.776;9.128;2023-05-07T14:12:43;2.00;;;1.20;;
10311;SDS011;5201;48.776;9.128;2023-05-07T14:15:09;1.77;;;0.90;;
10311;SDS011;5201;48.776;9.128;2023-05-07T14:17:35;1.47;;;1.37;;
10311;SDS011;5201;48.776;9.128;2023-05-07T14:20:01;3.40;;;1.07;;
10311;SDS011;5201;48.776;9.128;2023-05-07T14:22:26;2.20;;;0.97;;
10311;SDS011;5201;48.776;9.128;2023-05-07T14:24:52;0.97;;;0.97;;
10311;SDS011;5201;48.776;9.128;2023-05-07T14:27:18;2.70;;;1.77;;
10311;SDS011;5201;48.776;9.128;2023-05-07T14:29:43;1.63;;;0.93;;
10311;SDS011;5201;48.776;9.128;2023-05-07T14:32:10;3.43;;;1.07;;
10311;SDS011;5201;48.776;9.128;2023-05-07T14:34:36;2.40;;;1.30;;
10311;SDS011;5201;48.776;9.128;2023-05-07T14:37:01;2.47;;;1.17;;
10311;SDS011;5201;48.776;9.128;2023-05-07T14:39:27;5.13;;;1.30;;
10311;SDS011;5201;48.776;9.128;2023-05-07T14:41:53;3.53;;;1.13;;
10311;SDS011;5201;48.776;9.128;2023-05-07T14:44:19;2.10;;;1.33;;
10311;SDS011;5201;48.776;9.128;2023-05-07T14:46:45;2.37;;;1.40;;
10311;SDS011;5201;48.776;9.128;2023-05-07T14:49:11;3.90;;;1.30;;
10311;SDS011;5201;48.776;9.128;2023-05-07T14:51:42;1.70;;;0.87;;
10311;SDS011;5201;48.776;9.128;2023-05-07T14:54:09;1.00;;;1.00;;
10311;SDS011;5201;48.776;9.128;2023-05-07T14:56:35;2.00;;;1.90;;
10311;SDS011;5201;48.776;9.128;2023-05-07T14:59:01;3.30;;;0.90;;
10311;SDS011;5201;48.776;9.128;2023-05-07T15:01:28;1.60;;;0.80;;
10311;SDS011;5201;48.776;9.128;2023-05-07T15:03:53;3.10;;;1.07;;
10311;SDS011;5201;48.776;9.128;2023-05-07T15:06:19;0.80;;;0.80;;
10311;SDS011;5201;48.776;9.128;2023-05-07T15:08:45;0.93;;;0.93;;
10311;SDS011;5201;48.776;9.128;2023-05-07T15:11:11;1.13;;;0.80;;
10311;SDS011;5201;48.776;9.128;2023-05-07T15:13:37;1.27;;;1.10;;
10311;SDS011;5201;48.776;9.128;2023-05-07T15:16:02;1.10;;;0.87;;
10311;SDS011;5201;48.776;9.128;2023-05-07T15:18:28;4.67;;;1.20;;
10311;SDS011;5201;48.776;9.128;2023-05-07T15:20:54;1.53;;;1.40;;